createdAt,value
2018-01-27T00:01:09.822Z,70.60
2018-01-27T00:03:38.044Z,71.40
2018-01-27T00:06:07.037Z,70.90
2018-01-27T00:08:36.107Z,70.60
2018-01-27T00:11:04.375Z,70.60
2018-01-27T00:13:32.629Z,71.40
2018-01-27T00:16:00.873Z,70.80
2018-01-27T00:18:29.950Z,70.00
2018-01-27T00:20:58.251Z,70.00
2018-01-27T00:23:27.249Z,70.10
2018-01-27T00:25:55.536Z,70.00
2018-01-27T00:28:23.811Z,70.70
2018-01-27T00:30:52.103Z,69.60
2018-01-27T00:33:20.383Z,70.20
2018-01-27T00:35:48.652Z,70.30
2018-01-27T00:38:16.932Z,70.40
2018-01-27T00:40:45.174Z,70.40
2018-01-27T00:43:14.236Z,70.80
2018-01-27T00:45:42.459Z,70.80
2018-01-27T00:48:10.752Z,71.60
2018-01-27T00:50:39.016Z,71.30
2018-01-27T00:53:08.079Z,71.70
2018-01-27T00:55:36.355Z,71.70
2018-01-27T00:58:04.582Z,70.90
2018-01-27T01:00:32.850Z,71.30
2018-01-27T01:03:01.136Z,71.00
2018-01-27T01:05:29.467Z,71.40
2018-01-27T01:07:57.735Z,70.90
2018-01-27T01:10:26.032Z,70.80
2018-01-27T01:12:55.032Z,71.80
2018-01-27T01:15:24.035Z,71.20
2018-01-27T01:17:52.283Z,71.20
2018-01-27T01:20:21.419Z,70.80
2018-01-27T01:22:49.699Z,71.50
2018-01-27T01:25:17.971Z,70.90
2018-01-27T01:27:46.212Z,71.20
2018-01-27T01:30:14.511Z,71.00
2018-01-27T01:32:42.715Z,71.50
2018-01-27T01:35:11.014Z,71.10
2018-01-27T01:37:39.292Z,70.40
2018-01-27T01:40:07.533Z,70.90
2018-01-27T01:42:41.479Z,70.90
2018-01-27T01:45:09.737Z,70.70
2018-01-27T01:47:38.002Z,71.20
2018-01-27T01:50:06.276Z,70.50
2018-01-27T01:52:34.557Z,70.50
2018-01-27T01:55:02.831Z,70.90
2018-01-27T01:57:31.111Z,70.60
2018-01-27T01:59:59.399Z,70.50
2018-01-27T02:02:27.677Z,70.70
2018-01-27T02:04:55.920Z,70.20
2018-01-27T02:07:24.924Z,70.20
2018-01-27T02:09:53.203Z,70.30
2018-01-27T02:12:21.452Z,70.20
2018-01-27T02:14:49.727Z,70.00
2018-01-27T02:17:18.014Z,69.80
2018-01-27T02:19:47.026Z,70.70
2018-01-27T02:22:15.302Z,70.70
2018-01-27T02:24:43.576Z,70.30
2018-01-27T02:27:12.615Z,71.50
2018-01-27T02:29:40.851Z,71.50
2018-01-27T02:32:09.093Z,70.90
2018-01-27T02:34:37.989Z,71.70
2018-01-27T02:37:06.226Z,71.50
2018-01-27T02:39:34.534Z,70.20
2018-01-27T02:42:02.760Z,70.00
2018-01-27T02:44:31.591Z,70.70
2018-01-27T02:46:59.896Z,71.00
2018-01-27T02:49:28.121Z,71.00
2018-01-27T02:51:56.468Z,70.90
2018-01-27T02:54:24.765Z,70.50
2018-01-27T02:56:53.033Z,70.20
2018-01-27T02:59:21.286Z,70.70
2018-01-27T03:01:50.281Z,70.50
2018-01-27T03:04:19.345Z,70.30
2018-01-27T03:06:47.574Z,70.20
2018-01-27T03:09:15.818Z,70.00
2018-01-27T03:11:44.065Z,70.20
2018-01-27T03:14:12.398Z,70.70
2018-01-27T03:16:41.390Z,70.60
2018-01-27T03:19:09.640Z,70.50
2018-01-27T03:21:37.942Z,70.90
2018-01-27T03:24:06.975Z,70.40
2018-01-27T03:26:35.274Z,70.30
2018-01-27T03:29:03.505Z,70.30
2018-01-27T03:31:31.747Z,70.00
2018-01-27T03:34:00.766Z,70.30
2018-01-27T03:36:29.001Z,70.20
2018-01-27T03:38:57.298Z,70.30
2018-01-27T03:41:26.335Z,70.60
2018-01-27T03:43:54.551Z,69.90
2018-01-27T03:46:22.801Z,69.90
2018-01-27T03:48:51.080Z,69.60
2018-01-27T03:51:19.373Z,69.40
2018-01-27T03:53:47.641Z,69.90
2018-01-27T03:56:15.881Z,70.00
2018-01-27T03:58:44.165Z,70.10
2018-01-27T04:01:12.399Z,70.70
2018-01-27T04:03:40.659Z,70.00
2018-01-27T04:06:08.900Z,69.70
2018-01-27T04:08:37.194Z,70.10
2018-01-27T04:11:06.033Z,70.10
2018-01-27T04:13:35.049Z,70.60
2018-01-27T04:16:03.336Z,70.50
2018-01-27T04:18:31.631Z,70.40
2018-01-27T04:20:59.923Z,70.80
2018-01-27T04:23:28.161Z,71.00
2018-01-27T04:25:56.419Z,70.50
2018-01-27T04:28:25.421Z,70.50
2018-01-27T04:30:53.722Z,71.30
2018-01-27T04:33:22.000Z,69.80
2018-01-27T04:35:50.258Z,70.30
2018-01-27T04:38:19.308Z,70.80
2018-01-27T04:40:47.529Z,70.80
2018-01-27T04:43:15.851Z,71.00
2018-01-27T04:45:44.173Z,69.70
2018-01-27T04:48:13.199Z,70.80
2018-01-27T04:50:41.452Z,70.70
2018-01-27T04:53:09.691Z,70.40
2018-01-27T04:55:37.955Z,70.30
2018-01-27T04:58:06.212Z,70.10
2018-01-27T05:00:34.490Z,70.30
2018-01-27T05:03:02.775Z,70.70
2018-01-27T05:05:31.007Z,70.40
2018-01-27T05:07:59.295Z,70.10
2018-01-27T05:10:27.570Z,70.50
2018-01-27T05:12:57.520Z,70.90
2018-01-27T05:15:25.774Z,70.90
2018-01-27T05:17:54.022Z,70.00
2018-01-27T05:20:23.109Z,70.20
2018-01-27T05:22:51.389Z,70.20
2018-01-27T05:25:19.660Z,69.90
2018-01-27T05:27:47.906Z,69.90
2018-01-27T05:30:16.972Z,69.70
2018-01-27T05:32:45.279Z,69.70
2018-01-27T05:35:13.511Z,70.00
2018-01-27T05:37:41.764Z,70.20
2018-01-27T05:40:10.061Z,70.50
2018-01-27T05:42:39.056Z,70.40
2018-01-27T05:45:07.368Z,70.40
2018-01-27T05:47:35.641Z,70.40
2018-01-27T05:50:03.922Z,70.70
2018-01-27T05:52:32.219Z,70.30
2018-01-27T05:55:00.494Z,70.00
2018-01-27T05:57:28.753Z,70.20
2018-01-27T05:59:56.991Z,70.40
2018-01-27T06:02:25.271Z,70.30
2018-01-27T06:04:54.332Z,70.30
2018-01-27T06:07:22.608Z,70.30
2018-01-27T06:09:50.895Z,70.20
2018-01-27T06:12:19.175Z,69.90
2018-01-27T06:14:47.443Z,70.30
2018-01-27T06:17:15.676Z,69.80
2018-01-27T06:19:43.975Z,69.60
2018-01-27T06:22:12.294Z,69.80
2018-01-27T06:24:40.576Z,70.10
2018-01-27T06:27:09.641Z,69.80
2018-01-27T06:29:37.876Z,69.70
2018-01-27T06:32:06.150Z,70.40
2018-01-27T06:34:34.452Z,70.00
2018-01-27T06:37:02.713Z,69.80
2018-01-27T06:39:32.618Z,69.40
2018-01-27T06:42:00.893Z,69.50
2018-01-27T06:44:29.204Z,69.90
2018-01-27T06:46:57.446Z,69.90
2018-01-27T06:49:25.694Z,69.40
2018-01-27T06:51:54.752Z,69.90
2018-01-27T06:54:23.025Z,69.80
2018-01-27T06:56:51.288Z,69.30
2018-01-27T06:59:19.533Z,69.20
2018-01-27T07:01:48.570Z,69.10
2018-01-27T07:04:16.824Z,69.00
2018-01-27T07:06:45.108Z,69.80
2018-01-27T07:09:13.402Z,69.00
2018-01-27T07:11:41.664Z,70.00
2018-01-27T07:14:09.930Z,68.70
2018-01-27T07:16:38.241Z,69.80
2018-01-27T07:19:06.973Z,69.50
2018-01-27T07:21:36.051Z,70.40
2018-01-27T07:24:04.272Z,70.30
2018-01-27T07:26:32.584Z,70.40
2018-01-27T07:29:00.817Z,71.60
2018-01-27T07:31:29.044Z,71.70
2018-01-27T07:33:57.291Z,71.30
2018-01-27T07:36:25.579Z,71.80
2018-01-27T07:38:53.854Z,71.40
2018-01-27T07:41:22.092Z,72.10
2018-01-27T07:43:51.147Z,72.00
2018-01-27T07:46:19.441Z,71.90
2018-01-27T07:48:47.720Z,70.90
2018-01-27T07:51:15.976Z,71.90
2018-01-27T07:53:44.220Z,72.20
2018-01-27T07:56:12.555Z,72.20
2018-01-27T07:58:40.886Z,71.50
2018-01-27T08:01:09.113Z,73.10
2018-01-27T08:03:38.366Z,72.50
2018-01-27T08:06:06.610Z,72.50
2018-01-27T08:08:34.875Z,72.00
2018-01-27T08:11:03.894Z,71.60
2018-01-27T08:13:32.129Z,71.60
2018-01-27T08:16:00.457Z,71.70
2018-01-27T08:18:29.485Z,71.80
2018-01-27T08:20:57.713Z,71.90
2018-01-27T08:23:26.009Z,71.70
2018-01-27T08:25:54.279Z,71.50
2018-01-27T08:28:22.597Z,71.30
2018-01-27T08:30:50.905Z,71.30
2018-01-27T08:33:19.943Z,71.20
2018-01-27T08:35:48.181Z,71.10
2018-01-27T08:38:16.431Z,71.40
2018-01-27T08:40:44.731Z,71.70
2018-01-27T08:43:13.786Z,71.00
2018-01-27T08:45:42.111Z,71.00
2018-01-27T08:48:11.165Z,70.60
2018-01-27T08:50:39.392Z,70.60
2018-01-27T08:53:07.696Z,70.90
2018-01-27T08:55:35.936Z,71.10
2018-01-27T08:58:04.250Z,70.90
2018-01-27T09:00:32.535Z,70.70
2018-01-27T09:03:00.756Z,71.00
2018-01-27T09:05:29.823Z,70.10
2018-01-27T09:07:58.060Z,70.10
2018-01-27T09:10:27.046Z,70.50
2018-01-27T09:12:55.290Z,70.40
2018-01-27T09:15:24.312Z,70.20
2018-01-27T09:17:52.620Z,70.20
2018-01-27T09:20:20.881Z,70.00
2018-01-27T09:22:49.161Z,70.00
2018-01-27T09:25:17.453Z,70.10
2018-01-27T09:27:46.148Z,70.40
2018-01-27T09:30:14.412Z,70.00
2018-01-27T09:32:42.692Z,69.90
2018-01-27T09:35:10.932Z,69.70
2018-01-27T09:37:39.223Z,69.70
2018-01-27T09:40:07.488Z,70.20
2018-01-27T09:42:35.766Z,69.70
2018-01-27T09:45:04.053Z,69.60
2018-01-27T09:47:32.313Z,69.50
2018-01-27T09:50:01.343Z,69.30
2018-01-27T09:52:29.590Z,69.30
2018-01-27T09:54:57.854Z,69.00
2018-01-27T09:57:26.858Z,69.10
2018-01-27T09:59:55.103Z,69.10
2018-01-27T10:02:23.421Z,69.50
2018-01-27T10:04:51.695Z,69.30
2018-01-27T10:07:20.716Z,69.10
2018-01-27T10:09:48.962Z,69.10
2018-01-27T10:12:17.195Z,69.00
2018-01-27T10:14:45.515Z,69.00
2018-01-27T10:17:14.567Z,69.20
2018-01-27T10:19:42.831Z,69.80
2018-01-27T10:22:11.112Z,69.00
2018-01-27T10:24:39.340Z,68.80
2018-01-27T10:27:07.705Z,68.70
